Time;durP1;ratioP1;P1;durP2;ratioP2;P2;SDS_P1;SDS_P2;PMS_P1;PMS_P2;Temp;Humidity;BMP_temperature;BMP_pressure;BME280_temperature;BME280_humidity;BME280_pressure;Samples;Min_cycle;Max_cycle;Signal;HPM_P1;HPM_P2
2023/09/13 00:02:04;;;;;;;0.10;0.10;;;21.40;99.90;;;;;;4979492;28;20194;-82
2023/09/13 00:04:29;;;;;;;0.10;0.10;;;21.30;99.90;;;;;;4978107;28;20212;-83
2023/09/13 00:06:55;;;;;;;0.10;0.10;;;21.20;99.90;;;;;;4978927;28;20191;-83
2023/09/13 00:09:20;;;;;;;0.10;0.10;;;21.40;99.90;;;;;;4985715;28;20211;-83
2023/09/13 00:11:46;;;;;;;0.10;0.10;;;21.60;99.90;;;;;;4981504;28;20195;-82
2023/09/13 00:14:11;;;;;;;0.10;0.10;;;21.60;99.90;;;;;;4998621;28;20302;-81
2023/09/13 00:16:37;;;;;;;0.10;0.10;;;21.80;99.90;;;;;;4981642;28;20679;-81
2023/09/13 00:19:04;;;;;;;0.10;0.10;;;21.90;99.90;;;;;;4982672;28;20638;-81
2023/09/13 00:21:30;;;;;;;0.10;0.10;;;22.00;99.90;;;;;;4982695;28;20187;-81
2023/09/13 00:23:56;;;;;;;0.10;0.10;;;22.10;99.90;;;;;;4985421;28;20204;-81
2023/09/13 00:26:21;;;;;;;0.10;0.10;;;22.10;99.90;;;;;;4984787;28;20203;-81
2023/09/13 00:28:47;;;;;;;0.10;0.10;;;22.10;99.90;;;;;;4990777;28;20201;-81
2023/09/13 00:31:13;;;;;;;0.10;0.10;;;22.10;99.90;;;;;;4988183;28;20223;-81
2023/09/13 00:33:38;;;;;;;0.10;0.10;;;22.20;99.90;;;;;;4997358;28;20913;-80
2023/09/13 00:36:04;;;;;;;0.10;0.10;;;22.20;99.90;;;;;;4989451;28;20188;-81
2023/09/13 00:38:30;;;;;;;0.10;0.10;;;22.30;99.90;;;;;;4987205;28;20251;-82
2023/09/13 00:40:56;;;;;;;0.10;0.10;;;22.20;99.90;;;;;;4981031;28;20212;-82
2023/09/13 00:43:21;;;;;;;0.10;0.10;;;22.20;99.90;;;;;;4999190;28;20350;-82
2023/09/13 00:45:50;;;;;;;0.10;0.10;;;22.20;99.90;;;;;;4989256;28;20785;-82
2023/09/13 00:48:17;;;;;;;0.10;0.10;;;22.10;99.90;;;;;;4989688;28;20222;-82
2023/09/13 00:50:45;;;;;;;0.10;0.10;;;22.10;99.90;;;;;;4988485;28;20271;-82
2023/09/13 00:53:10;;;;;;;0.10;0.10;;;22.10;99.90;;;;;;4982634;28;20180;-82
2023/09/13 00:55:37;;;;;;;0.10;0.10;;;22.10;99.90;;;;;;4980792;28;20187;-82
2023/09/13 00:58:04;;;;;;;0.10;0.10;;;22.10;99.90;;;;;;4980675;28;20184;-82
2023/09/13 01:00:32;;;;;;;0.10;0.10;;;22.10;99.90;;;;;;4983022;28;20204;-81
2023/09/13 01:02:58;;;;;;;0.10;0.10;;;22.00;99.90;;;;;;4987864;28;20196;-82
2023/09/13 01:05:24;;;;;;;0.10;0.10;;;22.10;99.90;;;;;;4989201;28;21012;-82
2023/09/13 01:07:49;;;;;;;0.10;0.10;;;22.10;99.90;;;;;;4981311;28;20302;-82
2023/09/13 01:10:15;;;;;;;0.10;0.10;;;22.10;99.90;;;;;;4988719;28;20294;-82
2023/09/13 01:12:41;;;;;;;0.10;0.10;;;22.10;99.90;;;;;;4987977;28;20196;-81
2023/09/13 01:15:08;;;;;;;0.10;0.10;;;22.10;99.90;;;;;;4982337;28;20209;-82
2023/09/13 01:17:58;;;;;;;0.10;0.10;;;22.00;99.90;;;;;;4981980;28;20243;-82
2023/09/13 01:21:20;;;;;;;0.10;0.10;;;22.10;99.90;;;;;;4996951;28;20227;-82
2023/09/13 01:24:23;;;;;;;0.10;0.10;;;22.10;99.90;;;;;;4914122;29;20228;-82
2023/09/13 01:26:59;;;;;;;0.10;0.10;;;22.00;99.90;;;;;;4920845;29;20593;-82
2023/09/13 01:29:25;;;;;;;0.10;0.10;;;21.80;99.90;;;;;;4967858;28;20279;-82
2023/09/13 01:31:53;;;;;;;0.10;0.10;;;21.80;99.90;;;;;;4988382;28;20529;-82
2023/09/13 01:34:18;;;;;;;0.10;0.10;;;21.80;99.90;;;;;;4989574;28;20208;-82
2023/09/13 01:36:44;;;;;;;0.10;0.10;;;21.70;99.90;;;;;;4980268;28;20254;-82
2023/09/13 01:39:09;;;;;;;0.10;0.10;;;21.70;99.90;;;;;;4997618;28;20329;-81
2023/09/13 01:41:45;;;;;;;0.10;0.10;;;21.70;99.90;;;;;;4987693;28;20230;-81
2023/09/13 01:44:11;;;;;;;0.10;0.10;;;21.70;99.90;;;;;;4981093;28;20203;-81
2023/09/13 01:46:42;;;;;;;0.10;0.10;;;21.70;99.90;;;;;;4980568;28;20271;-82
2023/09/13 01:49:09;;;;;;;0.10;0.10;;;21.60;99.90;;;;;;4981979;28;20247;-81
2023/09/13 01:51:35;;;;;;;0.10;0.10;;;21.60;99.90;;;;;;4982152;28;20560;-82
2023/09/13 01:54:01;;;;;;;0.10;0.10;;;21.70;99.90;;;;;;4981272;28;20536;-82
2023/09/13 01:56:27;;;;;;;0.10;0.10;;;21.70;99.90;;;;;;4988783;28;20191;-82
2023/09/13 01:58:52;;;;;;;0.10;0.10;;;21.70;99.90;;;;;;4982586;28;20174;-82
2023/09/13 02:01:18;;;;;;;0.10;0.10;;;21.70;99.90;;;;;;4988035;28;20180;-82
2023/09/13 02:03:44;;;;;;;0.10;0.10;;;21.70;99.90;;;;;;4980993;28;20287;-82
2023/09/13 02:06:10;;;;;;;0.10;0.10;;;21.60;99.90;;;;;;4987848;28;20185;-81
2023/09/13 02:08:36;;;;;;;0.10;0.10;;;21.60;99.90;;;;;;4979639;28;20187;-82
2023/09/13 02:11:02;;;;;;;0.10;0.10;;;21.60;99.90;;;;;;4981984;28;20278;-82
2023/09/13 02:13:27;;;;;;;0.10;0.10;;;21.50;99.90;;;;;;4987687;28;21704;-82
2023/09/13 02:15:53;;;;;;;0.10;0.10;;;21.60;99.90;;;;;;4980052;28;20182;-82
2023/09/13 02:18:19;;;;;;;0.10;0.10;;;21.70;99.90;;;;;;4981964;28;20188;-82
2023/09/13 02:20:44;;;;;;;0.10;0.10;;;21.80;99.90;;;;;;4981110;28;20195;-82
2023/09/13 02:23:10;;;;;;;0.10;0.10;;;21.90;99.90;;;;;;4988180;28;20619;-82
2023/09/13 02:25:36;;;;;;;0.10;0.10;;;21.90;99.90;;;;;;4987478;28;20302;-82
2023/09/13 02:28:03;;;;;;;0.10;0.10;;;21.90;99.90;;;;;;4987966;28;20226;-82
2023/09/13 02:30:30;;;;;;;0.10;0.10;;;22.00;99.90;;;;;;4980282;28;20303;-82
2023/09/13 02:32:55;;;;;;;0.10;0.10;;;22.10;99.90;;;;;;4986336;28;20274;-82
2023/09/13 02:35:21;;;;;;;0.10;0.10;;;22.10;99.90;;;;;;4982074;28;20283;-82
2023/09/13 02:37:47;;;;;;;0.10;0.10;;;22.10;99.90;;;;;;4981079;28;20180;-82
2023/09/13 02:40:13;;;;;;;0.10;0.10;;;22.00;99.90;;;;;;4981078;28;20717;-82
2023/09/13 02:42:39;;;;;;;0.10;0.10;;;21.80;99.90;;;;;;4987712;28;20286;-81
2023/09/13 02:45:05;;;;;;;0.10;0.10;;;21.70;99.90;;;;;;4980586;28;20294;-83
2023/09/13 02:47:30;;;;;;;0.10;0.10;;;21.70;99.90;;;;;;4987413;28;20192;-82
2023/09/13 02:49:56;;;;;;;0.10;0.10;;;21.70;99.90;;;;;;4987218;28;20708;-82
2023/09/13 02:52:32;;;;;;;0.10;0.10;;;21.80;99.90;;;;;;4987728;28;20235;-82
2023/09/13 02:54:59;;;;;;;0.10;0.10;;;21.70;99.90;;;;;;4979108;28;20207;-82
2023/09/13 02:57:24;;;;;;;0.10;0.10;;;21.70;99.90;;;;;;4981126;28;20188;-82
2023/09/13 02:59:50;;;;;;;0.10;0.10;;;21.60;99.90;;;;;;4987447;28;20188;-82
2023/09/13 03:02:16;;;;;;;0.10;0.10;;;21.60;99.90;;;;;;4979888;28;20184;-82
2023/09/13 03:04:41;;;;;;;0.10;0.10;;;21.60;99.90;;;;;;4978625;28;20206;-82
2023/09/13 03:07:08;;;;;;;0.10;0.10;;;21.60;99.90;;;;;;4978807;28;20660;-82
2023/09/13 03:09:34;;;;;;;0.10;0.10;;;21.50;99.90;;;;;;4986833;28;20242;-82
2023/09/13 03:12:01;;;;;;;0.10;0.10;;;21.50;99.90;;;;;;4980649;28;20184;-82
2023/09/13 03:14:28;;;;;;;0.10;0.10;;;21.50;99.90;;;;;;4987415;28;20682;-82
2023/09/13 03:16:53;;;;;;;0.10;0.10;;;21.40;99.90;;;;;;4977843;28;20275;-82
2023/09/13 03:19:19;;;;;;;0.10;0.10;;;21.40;99.90;;;;;;4979878;28;20340;-81
2023/09/13 03:21:44;;;;;;;0.10;0.10;;;21.40;99.90;;;;;;4978409;28;20750;-82
2023/09/13 03:24:10;;;;;;;0.10;0.10;;;21.40;99.90;;;;;;4992513;28;20231;-82
2023/09/13 03:26:35;;;;;;;0.10;0.10;;;21.40;99.90;;;;;;4980174;28;20183;-82
2023/09/13 03:29:02;;;;;;;0.10;0.10;;;21.40;99.90;;;;;;4979595;28;20192;-82
2023/09/13 03:31:28;;;;;;;0.10;0.10;;;21.30;99.90;;;;;;4996397;28;20188;-82
2023/09/13 03:33:55;;;;;;;0.10;0.10;;;21.30;99.90;;;;;;4987269;28;20654;-82
2023/09/13 03:36:21;;;;;;;0.10;0.10;;;21.00;99.90;;;;;;4979427;28;20235;-82
2023/09/13 03:38:47;;;;;;;0.10;0.10;;;20.90;99.90;;;;;;4978449;28;20211;-82
2023/09/13 03:41:15;;;;;;;0.10;0.10;;;21.00;99.90;;;;;;4982671;28;20302;-82
2023/09/13 03:43:41;;;;;;;0.10;0.10;;;21.30;99.90;;;;;;4991952;28;20670;-82
2023/09/13 03:46:07;;;;;;;0.10;0.10;;;21.30;99.90;;;;;;4991457;28;20188;-82
2023/09/13 03:48:34;;;;;;;0.10;0.10;;;21.50;99.90;;;;;;4990519;28;20199;-82
2023/09/13 03:51:00;;;;;;;0.10;0.10;;;21.40;99.90;;;;;;4985113;28;20204;-82
2023/09/13 03:53:25;;;;;;;0.10;0.10;;;21.10;99.90;;;;;;4990464;28;20195;-83
2023/09/13 03:55:52;;;;;;;0.10;0.10;;;21.30;99.90;;;;;;4988275;28;20676;-82
2023/09/13 03:58:19;;;;;;;0.10;0.10;;;21.40;99.90;;;;;;4981509;28;20216;-82
2023/09/13 04:00:44;;;;;;;0.10;0.10;;;21.20;99.90;;;;;;4996903;28;20242;-82
2023/09/13 04:03:12;;;;;;;0.10;0.10;;;21.20;99.90;;;;;;4995189;28;20188;-82
2023/09/13 04:05:37;;;;;;;0.10;0.10;;;21.20;99.90;;;;;;4980758;28;20214;-82
2023/09/13 04:08:03;;;;;;;0.10;0.10;;;21.30;99.90;;;;;;4980279;28;20738;-82
2023/09/13 04:10:29;;;;;;;0.10;0.10;;;21.40;99.90;;;;;;4980836;28;20218;-82
2023/09/13 04:12:55;;;;;;;0.10;0.10;;;21.50;99.90;;;;;;4986018;28;20191;-82
2023/09/13 04:15:20;;;;;;;0.10;0.10;;;21.70;99.90;;;;;;4987434;28;20223;-83
2023/09/13 04:17:46;;;;;;;0.10;0.10;;;21.70;99.90;;;;;;4978862;28;20211;-81
2023/09/13 04:20:12;;;;;;;0.10;0.10;;;21.60;99.90;;;;;;4979815;28;20179;-82
2023/09/13 04:22:37;;;;;;;0.10;0.10;;;21.50;99.90;;;;;;4980049;28;20177;-82
2023/09/13 04:25:07;;;;;;;0.20;0.20;;;21.50;99.90;;;;;;4984921;28;20684;-82
2023/09/13 04:27:32;;;;;;;0.10;0.10;;;21.70;99.90;;;;;;4976759;28;20246;-82
2023/09/13 04:29:58;;;;;;;0.10;0.10;;;21.80;99.90;;;;;;4980384;28;20784;-82
2023/09/13 04:32:24;;;;;;;0.10;0.10;;;21.80;99.90;;;;;;4986975;28;20723;-82
2023/09/13 04:34:50;;;;;;;0.10;0.10;;;21.90;99.90;;;;;;4995187;28;20228;-82
2023/09/13 04:37:16;;;;;;;0.10;0.10;;;21.90;99.90;;;;;;4996451;28;20175;-82
2023/09/13 04:39:41;;;;;;;0.10;0.10;;;21.90;99.90;;;;;;4985886;28;20539;-82
2023/09/13 04:42:07;;;;;;;0.10;0.10;;;21.90;99.90;;;;;;4978328;28;20294;-82
2023/09/13 04:44:33;;;;;;;0.10;0.10;;;22.00;99.90;;;;;;4992735;28;20211;-82
2023/09/13 04:46:59;;;;;;;0.10;0.10;;;22.00;99.90;;;;;;4980746;28;20196;-82
2023/09/13 04:49:25;;;;;;;0.10;0.10;;;22.00;99.90;;;;;;4982825;28;20215;-81
2023/09/13 04:51:52;;;;;;;0.10;0.10;;;22.00;99.90;;;;;;4990002;28;20208;-81
2023/09/13 04:54:17;;;;;;;0.10;0.10;;;22.10;99.90;;;;;;4988292;28;20213;-81
2023/09/13 04:56:43;;;;;;;0.10;0.10;;;22.10;99.90;;;;;;4992728;28;20188;-80
2023/09/13 04:59:08;;;;;;;0.10;0.10;;;22.10;99.90;;;;;;4981240;28;20256;-80
2023/09/13 05:01:34;;;;;;;0.10;0.10;;;22.10;99.90;;;;;;4982347;28;20635;-80
2023/09/13 05:03:59;;;;;;;0.10;0.10;;;21.90;99.90;;;;;;4982695;28;20216;-80
2023/09/13 05:06:25;;;;;;;0.10;0.10;;;21.90;99.90;;;;;;4982829;28;20208;-80
2023/09/13 05:08:54;;;;;;;0.10;0.10;;;22.00;99.90;;;;;;4984545;28;20188;-80
2023/09/13 05:11:19;;;;;;;0.10;0.10;;;21.90;99.90;;;;;;4983387;28;20914;-81
2023/09/13 05:13:47;;;;;;;0.10;0.10;;;21.80;99.90;;;;;;4982434;28;20215;-82
2023/09/13 05:16:14;;;;;;;0.10;0.10;;;21.70;99.90;;;;;;4984972;28;20185;-81
2023/09/13 05:18:39;;;;;;;0.10;0.10;;;21.80;99.90;;;;;;4984264;28;21045;-81
2023/09/13 05:21:05;;;;;;;0.10;0.10;;;21.80;99.90;;;;;;4979823;28;20274;-83
2023/09/13 05:23:30;;;;;;;0.10;0.10;;;22.00;99.90;;;;;;4988364;28;20188;-83
2023/09/13 05:25:56;;;;;;;0.10;0.10;;;22.10;99.90;;;;;;4986995;28;20192;-83
2023/09/13 05:28:22;;;;;;;0.10;0.10;;;22.20;99.90;;;;;;4979670;28;20199;-83
2023/09/13 05:30:51;;;;;;;0.10;0.10;;;22.30;99.90;;;;;;4987279;28;20275;-84
2023/09/13 05:33:16;;;;;;;0.10;0.10;;;22.40;99.90;;;;;;4988382;28;20532;-83
2023/09/13 05:35:42;;;;;;;0.10;0.10;;;22.40;99.90;;;;;;4980586;28;20267;-83
2023/09/13 05:38:07;;;;;;;0.10;0.10;;;22.40;99.90;;;;;;4987370;28;20239;-83
2023/09/13 05:40:33;;;;;;;0.10;0.10;;;22.40;99.90;;;;;;4981895;28;20555;-83
2023/09/13 05:42:58;;;;;;;0.10;0.10;;;22.50;99.90;;;;;;4988290;28;20231;-83
2023/09/13 05:45:24;;;;;;;0.10;0.10;;;22.50;99.90;;;;;;4986333;28;20251;-84
2023/09/13 05:47:50;;;;;;;0.10;0.10;;;22.60;99.90;;;;;;4981220;28;20190;-83
2023/09/13 05:50:16;;;;;;;0.10;0.10;;;22.60;99.90;;;;;;4987250;28;20219;-83
2023/09/13 05:52:42;;;;;;;0.10;0.10;;;22.70;99.90;;;;;;4980611;28;20183;-83
2023/09/13 05:55:08;;;;;;;0.10;0.10;;;22.60;99.90;;;;;;4988235;28;20212;-83
2023/09/13 05:57:33;;;;;;;0.10;0.10;;;22.50;99.90;;;;;;4987695;28;20212;-84
2023/09/13 05:59:59;;;;;;;0.10;0.10;;;22.50;99.90;;;;;;4987786;28;20271;-83
2023/09/13 06:02:24;;;;;;;0.10;0.10;;;22.40;99.90;;;;;;4981625;28;20247;-84
2023/09/13 06:04:50;;;;;;;0.10;0.10;;;22.40;99.90;;;;;;4987703;28;20215;-83
2023/09/13 06:07:15;;;;;;;0.10;0.10;;;22.40;99.90;;;;;;4980896;28;20198;-82
2023/09/13 06:09:41;;;;;;;0.10;0.10;;;22.30;99.90;;;;;;4981104;28;20303;-82
2023/09/13 06:12:07;;;;;;;0.10;0.10;;;22.20;99.90;;;;;;4987639;28;20797;-82
2023/09/13 06:14:32;;;;;;;0.10;0.10;;;22.20;99.90;;;;;;4982310;28;20708;-81
2023/09/13 06:16:58;;;;;;;0.10;0.10;;;22.20;99.90;;;;;;4986044;28;20189;-81
2023/09/13 06:19:24;;;;;;;0.10;0.10;;;22.10;99.90;;;;;;4980845;28;20196;-81
2023/09/13 06:21:49;;;;;;;0.10;0.10;;;22.10;99.90;;;;;;4988234;28;20208;-82
2023/09/13 06:24:15;;;;;;;0.10;0.10;;;22.00;99.90;;;;;;4980942;28;20211;-81
2023/09/13 06:26:41;;;;;;;0.10;0.10;;;22.00;99.90;;;;;;4980867;28;20741;-82
2023/09/13 06:29:06;;;;;;;0.10;0.10;;;21.90;99.90;;;;;;4987131;28;20275;-82
2023/09/13 06:31:32;;;;;;;0.10;0.10;;;21.40;99.90;;;;;;4981631;28;20195;-82
2023/09/13 06:33:58;;;;;;;0.10;0.10;;;21.20;99.90;;;;;;4988464;28;20547;-81
2023/09/13 06:36:24;;;;;;;0.10;0.10;;;21.20;99.90;;;;;;4980948;28;20648;-81
2023/09/13 06:38:50;;;;;;;0.10;0.10;;;21.30;99.90;;;;;;4988892;28;20185;-80
2023/09/13 06:41:16;;;;;;;0.10;0.10;;;21.30;99.90;;;;;;4982510;28;20198;-81
2023/09/13 06:43:43;;;;;;;0.10;0.10;;;21.30;99.90;;;;;;4989315;28;20205;-81
2023/09/13 06:46:09;;;;;;;0.10;0.10;;;21.30;99.90;;;;;;4991762;28;21121;-81
2023/09/13 06:48:36;;;;;;;0.10;0.10;;;21.10;99.90;;;;;;4984576;28;20282;-81
2023/09/13 06:51:03;;;;;;;0.10;0.10;;;21.10;99.90;;;;;;4988516;28;20274;-81
2023/09/13 06:53:28;;;;;;;0.10;0.10;;;21.20;99.90;;;;;;4997420;28;20181;-81
2023/09/13 06:55:54;;;;;;;0.10;0.10;;;21.20;99.90;;;;;;4981924;28;20218;-81
2023/09/13 06:58:19;;;;;;;0.10;0.10;;;21.00;99.90;;;;;;4982873;28;20209;-81
2023/09/13 07:00:45;;;;;;;0.10;0.10;;;20.80;99.90;;;;;;4981252;28;20262;-81
2023/09/13 07:03:10;;;;;;;0.10;0.10;;;20.80;99.90;;;;;;4989217;28;20670;-81
2023/09/13 07:05:36;;;;;;;0.10;0.10;;;20.70;99.90;;;;;;4987721;28;20766;-81
2023/09/13 07:08:01;;;;;;;0.10;0.10;;;20.50;99.90;;;;;;4988065;28;20184;-81
2023/09/13 07:10:27;;;;;;;0.10;0.10;;;20.30;99.90;;;;;;4988926;28;20203;-81
2023/09/13 07:12:53;;;;;;;0.10;0.10;;;20.20;99.90;;;;;;4988834;28;20318;-81
2023/09/13 07:15:18;;;;;;;0.10;0.10;;;20.30;99.90;;;;;;4988349;28;20295;-81
2023/09/13 07:17:44;;;;;;;0.10;0.10;;;20.50;99.90;;;;;;4981647;28;20211;-81
2023/09/13 07:20:10;;;;;;;0.10;0.10;;;20.60;99.90;;;;;;4978780;28;20194;-83
2023/09/13 07:22:36;;;;;;;0.10;0.10;;;20.50;99.90;;;;;;4977882;28;20243;-83
2023/09/13 07:25:04;;;;;;;0.10;0.10;;;20.60;99.90;;;;;;4986086;28;20808;-81
2023/09/13 07:27:30;;;;;;;0.10;0.10;;;20.60;99.90;;;;;;4976615;28;20238;-81
2023/09/13 07:29:56;;;;;;;0.10;0.10;;;20.70;99.90;;;;;;4976564;28;20266;-81
2023/09/13 07:32:21;;;;;;;0.10;0.10;;;20.80;99.90;;;;;;4981263;28;20187;-81
2023/09/13 07:34:47;;;;;;;0.20;0.20;;;20.90;99.90;;;;;;4983836;28;20199;-81
2023/09/13 07:37:12;;;;;;;0.10;0.10;;;21.00;99.90;;;;;;4982988;28;20656;-81
2023/09/13 07:39:39;;;;;;;0.10;0.10;;;21.20;99.90;;;;;;4991030;28;20184;-81
2023/09/13 07:42:05;;;;;;;0.10;0.10;;;21.20;99.90;;;;;;4979906;28;20204;-82
2023/09/13 07:44:31;;;;;;;0.10;0.10;;;21.30;99.90;;;;;;4978439;28;21191;-82
2023/09/13 07:46:57;;;;;;;0.10;0.10;;;21.50;99.90;;;;;;4981909;28;20195;-81
2023/09/13 07:49:24;;;;;;;0.10;0.10;;;21.50;99.90;;;;;;4992418;28;20536;-82
2023/09/13 07:51:49;;;;;;;0.10;0.10;;;21.60;99.90;;;;;;4978734;28;20208;-82
2023/09/13 07:54:15;;;;;;;0.10;0.10;;;21.80;99.90;;;;;;4978879;28;20281;-82
2023/09/13 07:56:40;;;;;;;0.10;0.10;;;21.80;99.90;;;;;;4995160;28;20187;-81
2023/09/13 07:59:08;;;;;;;0.10;0.10;;;21.90;99.90;;;;;;4989930;28;20215;-82
2023/09/13 08:01:34;;;;;;;0.10;0.10;;;21.90;99.90;;;;;;4986144;28;20216;-81
2023/09/13 08:03:59;;;;;;;0.10;0.10;;;21.80;99.90;;;;;;4983546;28;20270;-82
2023/09/13 08:06:25;;;;;;;0.10;0.10;;;21.80;99.90;;;;;;4988489;28;20192;-82
2023/09/13 08:08:51;;;;;;;0.10;0.10;;;21.80;99.90;;;;;;4981734;28;20534;-81
2023/09/13 08:11:17;;;;;;;0.10;0.10;;;21.90;99.90;;;;;;4997448;28;20303;-81
2023/09/13 08:13:42;;;;;;;0.10;0.10;;;22.10;99.90;;;;;;4983787;28;20298;-81
2023/09/13 08:16:08;;;;;;;0.10;0.10;;;22.20;99.90;;;;;;4977871;28;20204;-81
2023/09/13 08:18:34;;;;;;;0.10;0.10;;;22.20;99.90;;;;;;4978720;28;20180;-81
2023/09/13 08:20:59;;;;;;;0.10;0.10;;;22.40;99.90;;;;;;4977597;28;20216;-81
2023/09/13 08:23:25;;;;;;;0.10;0.10;;;22.40;99.90;;;;;;4985175;28;20609;-81
2023/09/13 08:25:51;;;;;;;0.10;0.10;;;22.70;99.90;;;;;;4988133;28;20194;-82
2023/09/13 08:28:16;;;;;;;0.10;0.10;;;22.90;99.90;;;;;;4985488;28;20192;-80
2023/09/13 08:30:43;;;;;;;0.10;0.10;;;23.10;99.90;;;;;;4983903;28;20199;-80
2023/09/13 08:33:11;;;;;;;0.10;0.10;;;23.30;99.90;;;;;;4989110;28;20188;-81
2023/09/13 08:35:36;;;;;;;0.10;0.10;;;23.50;99.90;;;;;;4994629;28;20287;-82
2023/09/13 08:38:02;;;;;;;0.10;0.10;;;23.40;99.90;;;;;;4987441;28;20253;-81
2023/09/13 08:40:27;;;;;;;0.10;0.10;;;23.30;99.90;;;;;;4987410;28;20196;-82
2023/09/13 08:42:54;;;;;;;0.10;0.10;;;23.40;99.90;;;;;;4981999;28;20205;-82
2023/09/13 08:45:21;;;;;;;0.10;0.10;;;23.40;99.90;;;;;;4983576;28;20299;-82
2023/09/13 08:47:48;;;;;;;0.10;0.10;;;23.50;99.90;;;;;;4986257;28;20208;-82
2023/09/13 08:50:14;;;;;;;0.10;0.10;;;23.60;99.90;;;;;;4985957;28;20330;-82
2023/09/13 08:52:43;;;;;;;0.10;0.10;;;23.50;99.90;;;;;;4989039;28;20180;-82
2023/09/13 08:55:09;;;;;;;0.10;0.10;;;23.20;99.90;;;;;;4986114;28;20210;-82
2023/09/13 08:57:36;;;;;;;0.10;0.10;;;23.10;99.90;;;;;;4989898;28;20181;-82
2023/09/13 09:00:01;;;;;;;0.10;0.10;;;23.00;99.90;;;;;;4989068;28;20224;-82
2023/09/13 09:02:31;;;;;;;0.10;0.10;;;22.90;99.90;;;;;;4984024;28;20875;-81
2023/09/13 09:04:58;;;;;;;0.10;0.10;;;22.70;99.90;;;;;;4980691;28;20222;-82
2023/09/13 09:07:24;;;;;;;0.10;0.10;;;22.60;99.90;;;;;;5000468;28;20187;-81
2023/09/13 09:09:51;;;;;;;0.10;0.10;;;22.50;99.90;;;;;;4987847;28;20206;-81
2023/09/13 09:12:18;;;;;;;0.10;0.10;;;22.50;99.90;;;;;;4979604;28;20218;-82
2023/09/13 09:14:46;;;;;;;0.10;0.10;;;22.40;99.90;;;;;;4982314;28;20204;-82
2023/09/13 09:17:14;;;;;;;0.10;0.10;;;22.50;99.90;;;;;;4982923;28;20192;-83
2023/09/13 09:19:40;;;;;;;0.10;0.10;;;22.60;99.90;;;;;;4988456;28;20275;-82
2023/09/13 09:22:07;;;;;;;0.10;0.10;;;22.80;99.90;;;;;;4983768;28;20314;-82
2023/09/13 09:24:33;;;;;;;0.10;0.10;;;22.80;99.90;;;;;;4987783;28;20212;-82
2023/09/13 09:26:59;;;;;;;0.10;0.10;;;23.10;99.90;;;;;;4986620;28;20192;-82
2023/09/13 09:29:39;;;;;;;0.10;0.10;;;23.60;99.90;;;;;;4988957;28;20242;-82
2023/09/13 09:32:07;;;;;;;0.10;0.10;;;24.10;99.90;;;;;;4980369;28;20192;-82
2023/09/13 09:34:33;;;;;;;0.10;0.10;;;23.90;99.90;;;;;;4986922;28;20680;-82
2023/09/13 09:37:07;;;;;;;0.10;0.10;;;23.00;99.90;;;;;;4997342;28;20279;-82
2023/09/13 09:39:41;;;;;;;0.10;0.10;;;23.10;99.90;;;;;;4987286;28;20202;-82
2023/09/13 09:42:13;;;;;;;0.10;0.10;;;22.90;99.90;;;;;;4990949;28;20204;-81
2023/09/13 09:44:38;;;;;;;0.10;0.10;;;22.90;99.90;;;;;;4980736;28;20822;-82
2023/09/13 09:47:04;;;;;;;0.10;0.10;;;23.00;99.90;;;;;;4988565;28;20287;-82
2023/09/13 09:49:30;;;;;;;0.10;0.10;;;23.10;99.90;;;;;;4981653;28;20211;-81
2023/09/13 09:51:56;;;;;;;0.10;0.10;;;23.10;99.90;;;;;;4990406;28;20183;-81
2023/09/13 09:54:21;;;;;;;0.10;0.10;;;23.10;99.90;;;;;;4998560;28;20215;-81
2023/09/13 09:56:47;;;;;;;0.10;0.10;;;23.10;99.90;;;;;;4994540;28;20188;-81
2023/09/13 09:59:12;;;;;;;0.10;0.10;;;23.20;99.90;;;;;;4994318;28;20556;-81
2023/09/13 10:01:41;;;;;;;0.10;0.10;;;23.40;99.90;;;;;;4992206;28;20183;-80
2023/09/13 10:04:11;;;;;;;0.10;0.10;;;23.30;99.90;;;;;;4995241;28;20215;-81
2023/09/13 10:06:36;;;;;;;0.10;0.10;;;23.20;99.90;;;;;;4996954;28;20315;-81
2023/09/13 10:09:06;;;;;;;0.10;0.10;;;23.10;99.90;;;;;;4986599;28;20339;-81
2023/09/13 10:11:32;;;;;;;0.10;0.10;;;23.10;99.90;;;;;;4983376;28;20184;-82
2023/09/13 10:13:58;;;;;;;0.10;0.10;;;23.20;99.90;;;;;;4986348;28;20246;-81
2023/09/13 10:16:27;;;;;;;0.10;0.10;;;23.20;99.90;;;;;;4989001;28;20195;-81
2023/09/13 10:18:53;;;;;;;0.10;0.10;;;23.40;99.90;;;;;;4987048;28;20183;-81
2023/09/13 10:21:28;;;;;;;0.10;0.10;;;23.00;99.90;;;;;;4994295;28;20193;-81
2023/09/13 10:24:10;;;;;;;0.10;0.10;;;22.60;99.90;;;;;;4987987;28;20211;-81
2023/09/13 10:26:37;;;;;;;0.10;0.10;;;22.40;99.90;;;;;;4981009;28;20208;-81
2023/09/13 10:29:23;;;;;;;0.10;0.10;;;22.30;99.90;;;;;;4987573;28;20245;-82
2023/09/13 10:31:51;;;;;;;0.10;0.10;;;22.30;99.90;;;;;;4998956;28;20652;-81
2023/09/13 10:34:26;;;;;;;0.10;0.10;;;22.30;99.90;;;;;;4987069;28;20203;-81
2023/09/13 10:37:20;;;;;;;0.10;0.10;;;22.60;99.90;;;;;;4985485;28;20175;-81
2023/09/13 10:39:55;;;;;;;0.10;0.10;;;22.70;99.90;;;;;;4979324;28;22117;-84
2023/09/13 10:42:21;;;;;;;0.10;0.10;;;22.60;99.90;;;;;;4978952;28;20200;-82
2023/09/13 10:44:49;;;;;;;0.10;0.10;;;22.50;99.90;;;;;;4979553;28;20199;-82
2023/09/13 10:47:15;;;;;;;0.10;0.10;;;22.80;99.90;;;;;;4980952;28;20207;-82
2023/09/13 10:49:42;;;;;;;0.10;0.10;;;22.90;99.90;;;;;;4980447;28;20291;-82
2023/09/13 10:52:08;;;;;;;0.10;0.10;;;23.00;99.90;;;;;;4980596;28;20184;-82
2023/09/13 10:54:36;;;;;;;0.10;0.10;;;23.10;99.90;;;;;;4987023;28;20249;-82
2023/09/13 10:57:02;;;;;;;0.10;0.10;;;23.10;99.90;;;;;;4987976;28;20193;-82
2023/09/13 10:59:29;;;;;;;0.10;0.10;;;23.10;99.90;;;;;;4980468;28;20199;-82
2023/09/13 11:01:55;;;;;;;0.10;0.10;;;23.20;99.90;;;;;;4986158;28;20246;-82
2023/09/13 11:04:23;;;;;;;0.10;0.10;;;23.30;99.90;;;;;;4985749;28;20626;-82
2023/09/13 11:06:50;;;;;;;0.10;0.10;;;23.40;99.90;;;;;;4981567;28;20211;-81
2023/09/13 11:09:23;;;;;;;0.10;0.10;;;23.50;99.90;;;;;;4981488;28;20192;-82
2023/09/13 11:11:51;;;;;;;0.10;0.10;;;23.60;99.90;;;;;;4979748;28;20653;-82
2023/09/13 11:14:27;;;;;;;0.10;0.10;;;23.50;99.90;;;;;;4985658;28;20209;-81
2023/09/13 11:16:53;;;;;;;0.10;0.10;;;;;;;;;;4987692;28;20186;-82
2023/09/13 11:19:25;;;;;;;0.10;0.10;;;;;;;;;;4985599;28;20186;-82
2023/09/13 11:21:54;;;;;;;0.10;0.10;;;;;;;;;;4976461;28;20188;-81
2023/09/13 11:24:40;;;;;;;0.10;0.10;;;;;;;;;;4979532;28;20210;-81
2023/09/13 11:27:10;;;;;;;0.10;0.10;;;;;;;;;;4982049;28;20179;-81
2023/09/13 11:29:46;;;;;;;0.10;0.10;;;;;;;;;;4980838;28;20247;-81
2023/09/13 11:32:19;;;;;;;0.10;0.10;;;;;;;;;;4981406;28;20191;-81
2023/09/13 11:34:45;;;;;;;0.10;0.10;;;;;;;;;;4981817;28;20601;-81
2023/09/13 11:37:13;;;;;;;0.10;0.10;;;;;;;;;;4981409;28;20198;-82
2023/09/13 11:39:39;;;;;;;0.10;0.10;;;;;;;;;;4978852;28;20268;-82
2023/09/13 11:42:06;;;;;;;0.10;0.10;;;;;;;;;;4976800;28;20200;-82
2023/09/13 11:44:32;;;;;;;0.10;0.10;;;;;;;;;;4987566;28;20211;-81
2023/09/13 11:46:57;;;;;;;0.10;0.10;;;;;;;;;;4987833;28;20214;-81
2023/09/13 11:49:25;;;;;;;0.10;0.10;;;;;;;;;;4980507;28;20248;-81
2023/09/13 11:51:52;;;;;;;0.10;0.10;;;;;;;;;;4981079;28;20189;-81
2023/09/13 11:54:19;;;;;;;0.10;0.10;;;;;;;;;;4986415;28;20859;-81
2023/09/13 11:56:45;;;;;;;0.10;0.10;;;;;;;;;;4978326;28;20207;-82
2023/09/13 11:59:12;;;;;;;0.10;0.10;;;;;;;;;;4978455;28;20271;-81
2023/09/13 12:01:42;;;;;;;0.10;0.10;;;;;;;;;;4979740;28;20192;-82
2023/09/13 12:04:09;;;;;;;0.10;0.10;;;;;;;;;;4981115;28;20204;-81
2023/09/13 12:07:03;;;;;;;0.10;0.10;;;;;;;;;;4986845;28;20651;-81
2023/09/13 12:09:29;;;;;;;0.10;0.10;;;;;;;;;;4992022;28;20311;-81
2023/09/13 12:11:56;;;;;;;0.10;0.10;;;;;;;;;;4980300;28;20219;-82
2023/09/13 12:14:22;;;;;;;0.10;0.10;;;;;;;;;;4987642;28;20298;-81
2023/09/13 12:16:52;;;;;;;0.10;0.10;;;;;;;;;;4976279;28;20573;-81
2023/09/13 12:19:18;;;;;;;0.10;0.10;;;;;;;;;;4987266;28;20180;-81
2023/09/13 12:21:45;;;;;;;0.10;0.10;;;;;;;;;;4986512;28;20207;-82
2023/09/13 12:24:13;;;;;;;0.10;0.10;;;;;;;;;;4979123;28;20211;-81
2023/09/13 12:26:39;;;;;;;0.10;0.10;;;;;;;;;;4981254;28;20615;-81
2023/09/13 12:29:05;;;;;;;0.10;0.10;;;25.00;99.90;;;;;;4991291;28;20191;-82
2023/09/13 12:31:31;;;;;;;0.10;0.10;;;24.50;99.90;;;;;;4989220;28;20214;-82
2023/09/13 12:33:59;;;;;;;0.10;0.10;;;24.70;99.90;;;;;;4981274;28;20215;-82
2023/09/13 12:36:25;;;;;;;0.10;0.10;;;24.80;99.90;;;;;;4982672;28;20282;-82
2023/09/13 12:38:51;;;;;;;0.10;0.10;;;25.00;99.90;;;;;;4983223;28;20188;-82
2023/09/13 12:41:19;;;;;;;0.10;0.10;;;25.10;99.90;;;;;;4983670;28;20196;-82
2023/09/13 12:43:48;;;;;;;0.10;0.10;;;25.50;99.90;;;;;;4981159;28;20683;-82
2023/09/13 12:46:16;;;;;;;0.10;0.10;;;25.80;99.90;;;;;;4982649;28;20568;-82
2023/09/13 12:48:43;;;;;;;0.10;0.10;;;26.20;99.90;;;;;;4982249;28;20192;-81
2023/09/13 12:51:09;;;;;;;0.10;0.10;;;26.40;99.90;;;;;;4982466;28;20218;-83
2023/09/13 12:53:36;;;;;;;0.10;0.10;;;26.50;99.90;;;;;;4987288;28;20204;-82
2023/09/13 12:56:02;;;;;;;0.10;0.10;;;26.60;99.90;;;;;;4989107;28;20184;-82